sensor_id;sensor_type;location;lat;lon;timestamp;pressure;altitude;pressure_sealevel;temperature
73685;BMP280;61985;51.070;14.064;2023-04-10T00:01:12;99552.59;;;3.58
73685;BMP280;61985;51.070;14.064;2023-04-10T00:03:38;99548.31;;;3.53
73685;BMP280;61985;51.070;14.064;2023-04-10T00:06:03;99538.91;;;3.59
73685;BMP280;61985;51.070;14.064;2023-04-10T00:08:29;99542.31;;;3.40
73685;BMP280;61985;51.070;14.064;2023-04-10T00:10:55;99537.00;;;3.21
73685;BMP280;61985;51.070;14.064;2023-04-10T00:13:21;99542.22;;;3.17
73685;BMP280;61985;51.070;14.064;2023-04-10T00:15:47;99538.97;;;3.24
73685;BMP280;61985;51.070;14.064;2023-04-10T00:18:12;99546.38;;;3.15
73685;BMP280;61985;51.070;14.064;2023-04-10T00:20:38;99544.28;;;3.24
73685;BMP280;61985;51.070;14.064;2023-04-10T00:23:03;99540.84;;;3.23
73685;BMP280;61985;51.070;14.064;2023-04-10T00:25:29;99547.91;;;3.16
73685;BMP280;61985;51.070;14.064;2023-04-10T00:27:54;99543.72;;;3.15
73685;BMP280;61985;51.070;14.064;2023-04-10T00:30:20;99542.31;;;3.21
73685;BMP280;61985;51.070;14.064;2023-04-10T00:32:45;99536.72;;;3.26
73685;BMP280;61985;51.070;14.064;2023-04-10T00:35:11;99539.66;;;3.40
73685;BMP280;61985;51.070;14.064;2023-04-10T00:37:36;99539.06;;;3.47
73685;BMP280;61985;51.070;14.064;2023-04-10T00:40:03;99541.22;;;3.41
73685;BMP280;61985;51.070;14.064;2023-04-10T00:42:28;99545.34;;;3.19
73685;BMP280;61985;51.070;14.064;2023-04-10T00:44:54;99545.16;;;3.12
73685;BMP280;61985;51.070;14.064;2023-04-10T00:47:20;99544.13;;;3.17
73685;BMP280;61985;51.070;14.064;2023-04-10T00:49:45;99540.41;;;3.21
73685;BMP280;61985;51.070;14.064;2023-04-10T00:52:11;99535.09;;;3.21
73685;BMP280;61985;51.070;14.064;2023-04-10T00:54:36;99533.53;;;3.20
73685;BMP280;61985;51.070;14.064;2023-04-10T00:57:03;99532.53;;;3.09
73685;BMP280;61985;51.070;14.064;2023-04-10T00:59:32;99522.91;;;3.04
73685;BMP280;61985;51.070;14.064;2023-04-10T01:01:57;99523.25;;;3.03
73685;BMP280;61985;51.070;14.064;2023-04-10T01:04:23;99523.91;;;2.96
73685;BMP280;61985;51.070;14.064;2023-04-10T01:07:09;99522.38;;;2.99
73685;BMP280;61985;51.070;14.064;2023-04-10T01:10:05;99527.16;;;2.89
73685;BMP280;61985;51.070;14.064;2023-04-10T01:15:10;99526.47;;;2.77
73685;BMP280;61985;51.070;14.064;2023-04-10T01:20:15;99517.44;;;2.81
73685;BMP280;61985;51.070;14.064;2023-04-10T01:25:39;99523.09;;;2.96
73685;BMP280;61985;51.070;14.064;2023-04-10T01:30:45;99525.50;;;3.01
73685;BMP280;61985;51.070;14.064;2023-04-10T01:33:12;99527.81;;;3.02
73685;BMP280;61985;51.070;14.064;2023-04-10T01:35:42;99533.22;;;3.06
73685;BMP280;61985;51.070;14.064;2023-04-10T01:38:08;99533.69;;;2.92
73685;BMP280;61985;51.070;14.064;2023-04-10T01:40:38;99525.34;;;2.94
73685;BMP280;61985;51.070;14.064;2023-04-10T01:43:05;99520.72;;;2.90
73685;BMP280;61985;51.070;14.064;2023-04-10T01:45:32;99524.41;;;2.86
73685;BMP280;61985;51.070;14.064;2023-04-10T01:47:58;99524.38;;;3.02
73685;BMP280;61985;51.070;14.064;2023-04-10T01:50:25;99526.94;;;3.14
73685;BMP280;61985;51.070;14.064;2023-04-10T01:52:52;99520.56;;;3.19
73685;BMP280;61985;51.070;14.064;2023-04-10T01:55:19;99524.88;;;3.07
73685;BMP280;61985;51.070;14.064;2023-04-10T01:57:45;99518.69;;;3.03
73685;BMP280;61985;51.070;14.064;2023-04-10T02:00:16;99528.94;;;3.01
73685;BMP280;61985;51.070;14.064;2023-04-10T02:02:42;99524.13;;;3.07
73685;BMP280;61985;51.070;14.064;2023-04-10T02:05:08;99525.22;;;3.06
73685;BMP280;61985;51.070;14.064;2023-04-10T02:07:49;99524.53;;;3.09
73685;BMP280;61985;51.070;14.064;2023-04-10T02:10:40;99518.53;;;3.12
73685;BMP280;61985;51.070;14.064;2023-04-10T02:13:10;99517.22;;;3.22
73685;BMP280;61985;51.070;14.064;2023-04-10T02:15:38;99519.53;;;3.23
73685;BMP280;61985;51.070;14.064;2023-04-10T02:18:08;99511.19;;;3.25
73685;BMP280;61985;51.070;14.064;2023-04-10T02:20:34;99511.63;;;3.27
73685;BMP280;61985;51.070;14.064;2023-04-10T02:23:00;99508.31;;;3.34
73685;BMP280;61985;51.070;14.064;2023-04-10T02:25:34;99506.59;;;3.41
73685;BMP280;61985;51.070;14.064;2023-04-10T02:28:07;99505.53;;;3.46
73685;BMP280;61985;51.070;14.064;2023-04-10T02:30:32;99509.47;;;3.52
73685;BMP280;61985;51.070;14.064;2023-04-10T02:32:58;99506.31;;;3.46
73685;BMP280;61985;51.070;14.064;2023-04-10T02:35:23;99506.66;;;3.45
73685;BMP280;61985;51.070;14.064;2023-04-10T02:37:49;99506.03;;;3.52
73685;BMP280;61985;51.070;14.064;2023-04-10T02:40:15;99525.16;;;3.57
73685;BMP280;61985;51.070;14.064;2023-04-10T02:42:40;99512.97;;;3.56
73685;BMP280;61985;51.070;14.064;2023-04-10T02:45:07;99512.97;;;3.56
73685;BMP280;61985;51.070;14.064;2023-04-10T02:47:33;99522.06;;;3.55
73685;BMP280;61985;51.070;14.064;2023-04-10T02:49:58;99514.38;;;3.50
73685;BMP280;61985;51.070;14.064;2023-04-10T02:52:23;99510.66;;;3.55
73685;BMP280;61985;51.070;14.064;2023-04-10T02:54:48;99507.34;;;3.61
73685;BMP280;61985;51.070;14.064;2023-04-10T02:57:15;99510.00;;;3.61
73685;BMP280;61985;51.070;14.064;2023-04-10T02:59:40;99509.41;;;3.49
73685;BMP280;61985;51.070;14.064;2023-04-10T03:02:06;99515.91;;;3.51
73685;BMP280;61985;51.070;14.064;2023-04-10T03:04:31;99504.44;;;3.47
73685;BMP280;61985;51.070;14.064;2023-04-10T03:06:57;99512.91;;;3.53
73685;BMP280;61985;51.070;14.064;2023-04-10T03:09:23;99509.09;;;3.54
73685;BMP280;61985;51.070;14.064;2023-04-10T03:11:48;99508.75;;;3.55
73685;BMP280;61985;51.070;14.064;2023-04-10T03:14:14;99509.25;;;3.61
73685;BMP280;61985;51.070;14.064;2023-04-10T03:16:39;99509.31;;;3.64
73685;BMP280;61985;51.070;14.064;2023-04-10T03:19:05;99520.31;;;3.63
73685;BMP280;61985;51.070;14.064;2023-04-10T03:21:30;99503.94;;;3.61
73685;BMP280;61985;51.070;14.064;2023-04-10T03:23:56;99515.06;;;3.67
73685;BMP280;61985;51.070;14.064;2023-04-10T03:26:21;99511.56;;;3.62
73685;BMP280;61985;51.070;14.064;2023-04-10T03:28:48;99514.91;;;3.79
73685;BMP280;61985;51.070;14.064;2023-04-10T03:31:14;99508.06;;;3.78
73685;BMP280;61985;51.070;14.064;2023-04-10T03:33:39;99516.56;;;3.64
73685;BMP280;61985;51.070;14.064;2023-04-10T03:36:05;99514.38;;;3.70
73685;BMP280;61985;51.070;14.064;2023-04-10T03:38:30;99517.47;;;3.72
73685;BMP280;61985;51.070;14.064;2023-04-10T03:40:56;99514.09;;;3.75
73685;BMP280;61985;51.070;14.064;2023-04-10T03:43:21;99518.06;;;3.85
73685;BMP280;61985;51.070;14.064;2023-04-10T03:45:46;99512.69;;;3.81
73685;BMP280;61985;51.070;14.064;2023-04-10T03:48:12;99511.88;;;3.80
73685;BMP280;61985;51.070;14.064;2023-04-10T03:50:37;99511.84;;;3.77
73685;BMP280;61985;51.070;14.064;2023-04-10T03:53:03;99514.91;;;3.79
73685;BMP280;61985;51.070;14.064;2023-04-10T03:55:28;99516.53;;;3.83
73685;BMP280;61985;51.070;14.064;2023-04-10T03:57:55;99516.53;;;3.83
73685;BMP280;61985;51.070;14.064;2023-04-10T04:00:20;99513.84;;;3.83
73685;BMP280;61985;51.070;14.064;2023-04-10T04:02:46;99512.69;;;3.81
73685;BMP280;61985;51.070;14.064;2023-04-10T04:05:14;99515.00;;;3.82
73685;BMP280;61985;51.070;14.064;2023-04-10T04:07:39;99515.13;;;3.90
73685;BMP280;61985;51.070;14.064;2023-04-10T04:10:05;99520.09;;;3.91
73685;BMP280;61985;51.070;14.064;2023-04-10T04:12:31;99520.44;;;3.90
73685;BMP280;61985;51.070;14.064;2023-04-10T04:14:56;99517.78;;;3.90
73685;BMP280;61985;51.070;14.064;2023-04-10T04:17:21;99516.59;;;3.87
73685;BMP280;61985;51.070;14.064;2023-04-10T04:19:47;99521.25;;;3.90
73685;BMP280;61985;51.070;14.064;2023-04-10T04:22:14;99538.91;;;3.98
73685;BMP280;61985;51.070;14.064;2023-04-10T04:24:39;99533.22;;;3.80
73685;BMP280;61985;51.070;14.064;2023-04-10T04:27:04;99528.53;;;3.74
73685;BMP280;61985;51.070;14.064;2023-04-10T04:29:30;99531.63;;;3.76
73685;BMP280;61985;51.070;14.064;2023-04-10T04:31:55;99531.63;;;3.76
73685;BMP280;61985;51.070;14.064;2023-04-10T04:34:21;99539.34;;;3.81
73685;BMP280;61985;51.070;14.064;2023-04-10T04:36:46;99538.09;;;3.75
73685;BMP280;61985;51.070;14.064;2023-04-10T04:39:11;99543.84;;;3.77
73685;BMP280;61985;51.070;14.064;2023-04-10T04:41:37;99542.00;;;3.81
73685;BMP280;61985;51.070;14.064;2023-04-10T04:44:03;99543.53;;;3.82
73685;BMP280;61985;51.070;14.064;2023-04-10T04:46:29;99547.22;;;3.74
73685;BMP280;61985;51.070;14.064;2023-04-10T04:48:54;99547.97;;;3.74
73685;BMP280;61985;51.070;14.064;2023-04-10T04:51:19;99542.34;;;3.79
73685;BMP280;61985;51.070;14.064;2023-04-10T04:53:45;99548.50;;;3.83
73685;BMP280;61985;51.070;14.064;2023-04-10T04:56:10;99554.34;;;3.89
73685;BMP280;61985;51.070;14.064;2023-04-10T04:58:35;99549.72;;;3.86
73685;BMP280;61985;51.070;14.064;2023-04-10T05:01:01;99559.28;;;3.87
73685;BMP280;61985;51.070;14.064;2023-04-10T05:03:26;99550.13;;;3.88
73685;BMP280;61985;51.070;14.064;2023-04-10T05:05:55;99556.25;;;3.89
73685;BMP280;61985;51.070;14.064;2023-04-10T05:08:21;99553.50;;;3.85
73685;BMP280;61985;51.070;14.064;2023-04-10T05:10:47;99554.53;;;3.80
73685;BMP280;61985;51.070;14.064;2023-04-10T05:13:14;99549.13;;;3.73
73685;BMP280;61985;51.070;14.064;2023-04-10T05:15:44;99552.13;;;3.72
73685;BMP280;61985;51.070;14.064;2023-04-10T05:18:10;99553.31;;;3.74
73685;BMP280;61985;51.070;14.064;2023-04-10T05:20:35;99545.31;;;3.74
73685;BMP280;61985;51.070;14.064;2023-04-10T05:23:01;99554.50;;;3.77
73685;BMP280;61985;51.070;14.064;2023-04-10T05:25:26;99562.19;;;3.82
73685;BMP280;61985;51.070;14.064;2023-04-10T05:27:51;99566.28;;;3.95
73685;BMP280;61985;51.070;14.064;2023-04-10T05:30:17;99559.53;;;4.01
73685;BMP280;61985;51.070;14.064;2023-04-10T05:32:42;99568.22;;;4.18
73685;BMP280;61985;51.070;14.064;2023-04-10T05:35:08;99563.13;;;4.32
73685;BMP280;61985;51.070;14.064;2023-04-10T05:37:33;99561.81;;;4.46
73685;BMP280;61985;51.070;14.064;2023-04-10T05:39:59;99560.53;;;4.59
73685;BMP280;61985;51.070;14.064;2023-04-10T05:42:24;99559.94;;;4.69
73685;BMP280;61985;51.070;14.064;2023-04-10T05:44:51;99564.75;;;4.87
73685;BMP280;61985;51.070;14.064;2023-04-10T05:47:16;99562.25;;;4.98
73685;BMP280;61985;51.070;14.064;2023-04-10T07:49:55;99540.94;;;9.37
73685;BMP280;61985;51.070;14.064;2023-04-10T07:52:20;99535.88;;;9.49
73685;BMP280;61985;51.070;14.064;2023-04-10T07:54:45;99536.16;;;9.62
73685;BMP280;61985;51.070;14.064;2023-04-10T07:57:11;99537.19;;;9.86
73685;BMP280;61985;51.070;14.064;2023-04-10T07:59:36;99536.56;;;10.17
73685;BMP280;61985;51.070;14.064;2023-04-10T08:02:01;99539.56;;;10.26
73685;BMP280;61985;51.070;14.064;2023-04-10T08:04:27;99531.69;;;10.46
73685;BMP280;61985;51.070;14.064;2023-04-10T08:06:52;99528.44;;;10.58
73685;BMP280;61985;51.070;14.064;2023-04-10T08:09:17;99524.78;;;10.41
73685;BMP280;61985;51.070;14.064;2023-04-10T08:11:43;99517.00;;;10.51
73685;BMP280;61985;51.070;14.064;2023-04-10T08:14:08;99521.56;;;10.54
73685;BMP280;61985;51.070;14.064;2023-04-10T08:16:34;99519.94;;;10.60
73685;BMP280;61985;51.070;14.064;2023-04-10T08:19:00;99524.75;;;10.79
73685;BMP280;61985;51.070;14.064;2023-04-10T08:21:28;99520.69;;;10.64
73685;BMP280;61985;51.070;14.064;2023-04-10T08:23:54;99519.78;;;10.78
73685;BMP280;61985;51.070;14.064;2023-04-10T08:26:20;99522.06;;;10.79
73685;BMP280;61985;51.070;14.064;2023-04-10T08:28:47;99523.63;;;10.77
73685;BMP280;61985;51.070;14.064;2023-04-10T08:31:14;99515.53;;;10.80
73685;BMP280;61985;51.070;14.064;2023-04-10T08:33:39;99523.78;;;10.97
73685;BMP280;61985;51.070;14.064;2023-04-10T08:36:07;99516.03;;;10.99
73685;BMP280;61985;51.070;14.064;2023-04-10T08:38:32;99523.69;;;11.04
73685;BMP280;61985;51.070;14.064;2023-04-10T08:40:57;99513.09;;;11.17
73685;BMP280;61985;51.070;14.064;2023-04-10T08:43:22;99511.19;;;11.17
73685;BMP280;61985;51.070;14.064;2023-04-10T08:45:50;99504.13;;;11.27
73685;BMP280;61985;51.070;14.064;2023-04-10T08:48:17;99508.91;;;11.43
73685;BMP280;61985;51.070;14.064;2023-04-10T08:50:44;99505.84;;;11.41
73685;BMP280;61985;51.070;14.064;2023-04-10T08:53:12;99503.72;;;11.28
73685;BMP280;61985;51.070;14.064;2023-04-10T08:55:39;99504.78;;;11.35
73685;BMP280;61985;51.070;14.064;2023-04-10T08:58:05;99504.28;;;11.43
73685;BMP280;61985;51.070;14.064;2023-04-10T09:00:35;99501.19;;;11.45
73685;BMP280;61985;51.070;14.064;2023-04-10T09:03:03;99499.53;;;11.51
73685;BMP280;61985;51.070;14.064;2023-04-10T09:05:32;99501.19;;;11.45
73685;BMP280;61985;51.070;14.064;2023-04-10T09:07:59;99499.28;;;11.42
73685;BMP280;61985;51.070;14.064;2023-04-10T09:10:25;99492.78;;;11.63
73685;BMP280;61985;51.070;14.064;2023-04-10T09:12:51;99484.31;;;11.84
73685;BMP280;61985;51.070;14.064;2023-04-10T09:15:16;99486.81;;;12.19
73685;BMP280;61985;51.070;14.064;2023-04-10T09:17:58;99480.31;;;12.16
73685;BMP280;61985;51.070;14.064;2023-04-10T09:20:25;99486.75;;;12.22
73685;BMP280;61985;51.070;14.064;2023-04-10T09:22:51;99473.50;;;12.28
73685;BMP280;61985;51.070;14.064;2023-04-10T09:25:37;99479.28;;;12.30
73685;BMP280;61985;51.070;14.064;2023-04-10T09:28:06;99482.44;;;12.05
73685;BMP280;61985;51.070;14.064;2023-04-10T09:30:40;99472.59;;;11.95
73685;BMP280;61985;51.070;14.064;2023-04-10T09:33:21;99475.09;;;12.05
73685;BMP280;61985;51.070;14.064;2023-04-10T09:35:47;99475.03;;;12.29
73685;BMP280;61985;51.070;14.064;2023-04-10T09:38:15;99475.47;;;12.48
73685;BMP280;61985;51.070;14.064;2023-04-10T09:40:42;99470.75;;;12.52
73685;BMP280;61985;51.070;14.064;2023-04-10T09:43:24;99463.69;;;12.58
73685;BMP280;61985;51.070;14.064;2023-04-10T09:45:55;99470.88;;;12.44
73685;BMP280;61985;51.070;14.064;2023-04-10T09:48:22;99461.88;;;12.31
73685;BMP280;61985;51.070;14.064;2023-04-10T09:50:48;99456.66;;;12.60
73685;BMP280;61985;51.070;14.064;2023-04-10T09:53:15;99456.06;;;12.89
73685;BMP280;61985;51.070;14.064;2023-04-10T09:55:41;99453.81;;;13.20
73685;BMP280;61985;51.070;14.064;2023-04-10T09:58:08;99453.47;;;13.18
73685;BMP280;61985;51.070;14.064;2023-04-10T10:00:44;99446.81;;;13.23
73685;BMP280;61985;51.070;14.064;2023-04-10T10:03:12;99443.22;;;13.42
73685;BMP280;61985;51.070;14.064;2023-04-10T10:05:43;99442.06;;;13.43
73685;BMP280;61985;51.070;14.064;2023-04-10T10:08:09;99440.28;;;13.37
73685;BMP280;61985;51.070;14.064;2023-04-10T10:10:39;99436.72;;;13.40
73685;BMP280;61985;51.070;14.064;2023-04-10T10:13:07;99434.81;;;13.70
73685;BMP280;61985;51.070;14.064;2023-04-10T10:15:46;99435.28;;;13.81
73685;BMP280;61985;51.070;14.064;2023-04-10T10:20:45;99439.25;;;13.47
73685;BMP280;61985;51.070;14.064;2023-04-10T10:23:12;99430.38;;;13.30
73685;BMP280;61985;51.070;14.064;2023-04-10T10:25:40;99422.88;;;13.21
73685;BMP280;61985;51.070;14.064;2023-04-10T10:28:06;99419.75;;;13.69
73685;BMP280;61985;51.070;14.064;2023-04-10T10:30:32;99409.13;;;13.45
73685;BMP280;61985;51.070;14.064;2023-04-10T10:33:05;99419.63;;;13.89
73685;BMP280;61985;51.070;14.064;2023-04-10T10:35:31;99417.44;;;13.96
73685;BMP280;61985;51.070;14.064;2023-04-10T10:37:58;99412.97;;;14.19
73685;BMP280;61985;51.070;14.064;2023-04-10T10:40:32;99407.81;;;14.37
73685;BMP280;61985;51.070;14.064;2023-04-10T10:43:36;99412.47;;;14.50
73685;BMP280;61985;51.070;14.064;2023-04-10T10:46:06;99396.31;;;13.91
73685;BMP280;61985;51.070;14.064;2023-04-10T10:48:33;99393.72;;;13.88
73685;BMP280;61985;51.070;14.064;2023-04-10T10:50:59;99386.84;;;14.25
73685;BMP280;61985;51.070;14.064;2023-04-10T10:53:41;99387.66;;;14.38
73685;BMP280;61985;51.070;14.064;2023-04-10T10:58:54;99379.25;;;14.84
73685;BMP280;61985;51.070;14.064;2023-04-10T11:01:22;99380.66;;;14.76
73685;BMP280;61985;51.070;14.064;2023-04-10T11:03:48;99370.19;;;15.00
73685;BMP280;61985;51.070;14.064;2023-04-10T11:06:15;99361.44;;;14.83
73685;BMP280;61985;51.070;14.064;2023-04-10T11:08:50;99366.81;;;14.35
73685;BMP280;61985;51.070;14.064;2023-04-10T11:11:23;99358.88;;;14.15
73685;BMP280;61985;51.070;14.064;2023-04-10T11:16:14;99350.16;;;14.84
73685;BMP280;61985;51.070;14.064;2023-04-10T11:21:18;99341.38;;;15.28
73685;BMP280;61985;51.070;14.064;2023-04-10T11:24:05;99338.06;;;15.55
73685;BMP280;61985;51.070;14.064;2023-04-10T11:31:32;99332.31;;;15.75
73685;BMP280;61985;51.070;14.064;2023-04-10T11:34:02;99323.72;;;15.11
73685;BMP280;61985;51.070;14.064;2023-04-10T11:36:28;99334.22;;;14.74
73685;BMP280;61985;51.070;14.064;2023-04-10T11:38:58;99323.53;;;14.44
73685;BMP280;61985;51.070;14.064;2023-04-10T11:41:29;99325.38;;;14.95
73685;BMP280;61985;51.070;14.064;2023-04-10T11:43:59;99325.91;;;15.03
73685;BMP280;61985;51.070;14.064;2023-04-10T11:46:25;99315.84;;;15.25
73685;BMP280;61985;51.070;14.064;2023-04-10T11:48:54;99309.91;;;15.40
73685;BMP280;61985;51.070;14.064;2023-04-10T11:51:20;99302.94;;;15.92
73685;BMP280;61985;51.070;14.064;2023-04-10T11:53:46;99306.06;;;15.50
73685;BMP280;61985;51.070;14.064;2023-04-10T11:56:15;99292.78;;;15.30
73685;BMP280;61985;51.070;14.064;2023-04-10T11:58:41;99291.91;;;15.11
73685;BMP280;61985;51.070;14.064;2023-04-10T12:01:06;99276.50;;;15.30
73685;BMP280;61985;51.070;14.064;2023-04-10T12:03:37;99284.75;;;15.80
73685;BMP280;61985;51.070;14.064;2023-04-10T12:06:13;99287.38;;;15.93
73685;BMP280;61985;51.070;14.064;2023-04-10T12:11:07;99280.91;;;15.37
73685;BMP280;61985;51.070;14.064;2023-04-10T12:13:33;99269.38;;;14.88
73685;BMP280;61985;51.070;14.064;2023-04-10T12:16:01;99263.66;;;14.86
73685;BMP280;61985;51.070;14.064;2023-04-10T12:18:28;99261.41;;;15.51
73685;BMP280;61985;51.070;14.064;2023-04-10T12:20:54;99250.34;;;15.45
73685;BMP280;61985;51.070;14.064;2023-04-10T12:23:22;99262.97;;;15.17
73685;BMP280;61985;51.070;14.064;2023-04-10T12:25:48;99252.03;;;14.86
73685;BMP280;61985;51.070;14.064;2023-04-10T12:28:20;99250.47;;;14.63
73685;BMP280;61985;51.070;14.064;2023-04-10T12:30:51;99252.34;;;14.88
73685;BMP280;61985;51.070;14.064;2023-04-10T12:33:24;99244.31;;;15.73
73685;BMP280;61985;51.070;14.064;2023-04-10T12:35:50;99253.50;;;16.16
73685;BMP280;61985;51.070;14.064;2023-04-10T12:38:41;99254.34;;;16.53
73685;BMP280;61985;51.070;14.064;2023-04-10T12:41:10;99251.47;;;15.98
73685;BMP280;61985;51.070;14.064;2023-04-10T12:43:38;99249.94;;;15.87
73685;BMP280;61985;51.070;14.064;2023-04-10T12:46:06;99257.06;;;16.62
73685;BMP280;61985;51.070;14.064;2023-04-10T12:48:32;99245.72;;;16.73
73685;BMP280;61985;51.070;14.064;2023-04-10T12:50:58;99250.06;;;16.34
73685;BMP280;61985;51.070;14.064;2023-04-10T12:53:23;99248.28;;;16.49
73685;BMP280;61985;51.070;14.064;2023-04-10T12:55:57;99232.84;;;17.10
73685;BMP280;61985;51.070;14.064;2023-04-10T12:58:23;99236.34;;;17.87
73685;BMP280;61985;51.070;14.064;2023-04-10T13:00:53;99237.28;;;18.08
73685;BMP280;61985;51.070;14.064;2023-04-10T13:03:20;99231.91;;;18.23
73685;BMP280;61985;51.070;14.064;2023-04-10T13:05:45;99234.16;;;18.00
73685;BMP280;61985;51.070;14.064;2023-04-10T13:08:11;99227.44;;;18.10
73685;BMP280;61985;51.070;14.064;2023-04-10T13:10:36;99215.63;;;18.28
73685;BMP280;61985;51.070;14.064;2023-04-10T13:13:03;99213.50;;;18.47
73685;BMP280;61985;51.070;14.064;2023-04-10T13:15:28;99209.19;;;17.68
73685;BMP280;61985;51.070;14.064;2023-04-10T13:17:54;99212.19;;;16.76
73685;BMP280;61985;51.070;14.064;2023-04-10T13:20:19;99208.53;;;16.51
73685;BMP280;61985;51.070;14.064;2023-04-10T13:22:45;99203.00;;;17.16
73685;BMP280;61985;51.070;14.064;2023-04-10T13:25:10;99195.09;;;17.94
73685;BMP280;61985;51.070;14.064;2023-04-10T13:27:35;99196.69;;;17.86
73685;BMP280;61985;51.070;14.064;2023-04-10T13:30:01;99195.25;;;17.33
73685;BMP280;61985;51.070;14.064;2023-04-10T13:32:26;99196.63;;;17.19
73685;BMP280;61985;51.070;14.064;2023-04-10T13:34:52;99192.03;;;17.34
73685;BMP280;61985;51.070;14.064;2023-04-10T13:37:19;99184.47;;;17.96
73685;BMP280;61985;51.070;14.064;2023-04-10T13:39:44;99169.25;;;18.13
73685;BMP280;61985;51.070;14.064;2023-04-10T13:42:10;99170.34;;;18.60
73685;BMP280;61985;51.070;14.064;2023-04-10T13:44:35;99173.91;;;18.67
73685;BMP280;61985;51.070;14.064;2023-04-10T13:47:00;99171.28;;;18.87
73685;BMP280;61985;51.070;14.064;2023-04-10T13:49:26;99177.28;;;18.76
73685;BMP280;61985;51.070;14.064;2023-04-10T13:51:55;99161.00;;;18.52
73685;BMP280;61985;51.070;14.064;2023-04-10T13:54:21;99159.88;;;17.57
73685;BMP280;61985;51.070;14.064;2023-04-10T13:56:46;99151.03;;;16.96
73685;BMP280;61985;51.070;14.064;2023-04-10T13:59:12;99159.25;;;16.40
73685;BMP280;61985;51.070;14.064;2023-04-10T14:01:37;99158.63;;;15.90
73685;BMP280;61985;51.070;14.064;2023-04-10T14:04:03;99144.63;;;15.51
73685;BMP280;61985;51.070;14.064;2023-04-10T14:06:28;99143.09;;;15.50
73685;BMP280;61985;51.070;14.064;2023-04-10T14:08:53;99146.06;;;15.43
73685;BMP280;61985;51.070;14.064;2023-04-10T14:11:19;99140.28;;;15.32
73685;BMP280;61985;51.070;14.064;2023-04-10T14:13:44;99136.13;;;15.49
73685;BMP280;61985;51.070;14.064;2023-04-10T14:16:10;99129.75;;;15.34
73685;BMP280;61985;51.070;14.064;2023-04-10T14:18:36;99128.50;;;15.25
73685;BMP280;61985;51.070;14.064;2023-04-10T14:21:02;99125.47;;;15.23
73685;BMP280;61985;51.070;14.064;2023-04-10T14:23:27;99123.41;;;15.37
73685;BMP280;61985;51.070;14.064;2023-04-10T14:25:52;99121.47;;;15.96
73685;BMP280;61985;51.070;14.064;2023-04-10T14:28:18;99113.91;;;16.56
73685;BMP280;61985;51.070;14.064;2023-04-10T14:30:44;99116.13;;;16.85
73685;BMP280;61985;51.070;14.064;2023-04-10T14:33:10;99105.56;;;16.87
73685;BMP280;61985;51.070;14.064;2023-04-10T14:35:36;99099.44;;;17.01
73685;BMP280;61985;51.070;14.064;2023-04-10T14:38:02;99106.47;;;17.17
73685;BMP280;61985;51.070;14.064;2023-04-10T14:40:27;99092.63;;;17.63
73685;BMP280;61985;51.070;14.064;2023-04-10T14:42:52;99107.72;;;17.40
73685;BMP280;61985;51.070;14.064;2023-04-10T14:45:18;99089.47;;;17.55
73685;BMP280;61985;51.070;14.064;2023-04-10T14:47:43;99089.78;;;17.58
73685;BMP280;61985;51.070;14.064;2023-04-10T14:50:09;99081.25;;;17.65
73685;BMP280;61985;51.070;14.064;2023-04-10T14:52:35;99081.59;;;17.58
73685;BMP280;61985;51.070;14.064;2023-04-10T14:55:01;99074.31;;;18.03
73685;BMP280;61985;51.070;14.064;2023-04-10T14:57:26;99072.44;;;18.68
73685;BMP280;61985;51.070;14.064;2023-04-10T14:59:53;99079.69;;;18.56
73685;BMP280;61985;51.070;14.064;2023-04-10T15:02:19;99065.66;;;18.78
73685;BMP280;61985;51.070;14.064;2023-04-10T15:04:45;99070.56;;;18.59
73685;BMP280;61985;51.070;14.064;2023-04-10T15:07:12;99071.50;;;18.27
73685;BMP280;61985;51.070;14.064;2023-04-10T15:09:37;99080.72;;;18.44
73685;BMP280;61985;51.070;14.064;2023-04-10T15:12:03;99066.81;;;18.12
73685;BMP280;61985;51.070;14.064;2023-04-10T15:14:28;99069.78;;;18.14
73685;BMP280;61985;51.070;14.064;2023-04-10T15:16:53;99064.56;;;18.55
73685;BMP280;61985;51.070;14.064;2023-04-10T15:19:19;99061.38;;;18.42
73685;BMP280;61985;51.070;14.064;2023-04-10T15:21:44;99051.56;;;18.50
73685;BMP280;61985;51.070;14.064;2023-04-10T15:24:09;99052.31;;;18.66
73685;BMP280;61985;51.070;14.064;2023-04-10T15:26:34;99046.09;;;18.21
73685;BMP280;61985;51.070;14.064;2023-04-10T15:29:00;99040.38;;;17.41
73685;BMP280;61985;51.070;14.064;2023-04-10T15:31:25;99033.66;;;16.93
73685;BMP280;61985;51.070;14.064;2023-04-10T15:33:51;99039.44;;;16.35
73685;BMP280;61985;51.070;14.064;2023-04-10T15:36:16;99030.09;;;15.99
73685;BMP280;61985;51.070;14.064;2023-04-10T15:38:44;99027.53;;;15.67
73685;BMP280;61985;51.070;14.064;2023-04-10T15:41:11;99031.44;;;15.57
73685;BMP280;61985;51.070;14.064;2023-04-10T15:43:36;99013.91;;;15.49
73685;BMP280;61985;51.070;14.064;2023-04-10T15:46:02;99011.38;;;15.45
73685;BMP280;61985;51.070;14.064;2023-04-10T15:48:28;99004.53;;;15.41
73685;BMP280;61985;51.070;14.064;2023-04-10T15:50:54;99003.00;;;15.31
73685;BMP280;61985;51.070;14.064;2023-04-10T15:53:19;99003.78;;;15.22
73685;BMP280;61985;51.070;14.064;2023-04-10T15:55:45;99006.13;;;15.11
73685;BMP280;61985;51.070;14.064;2023-04-10T15:58:10;99001.91;;;15.10
73685;BMP280;61985;51.070;14.064;2023-04-10T16:00:38;98990.84;;;14.95
73685;BMP280;61985;51.070;14.064;2023-04-10T16:03:04;98983.22;;;14.71
73685;BMP280;61985;51.070;14.064;2023-04-10T16:05:30;98973.34;;;14.64
73685;BMP280;61985;51.070;14.064;2023-04-10T16:07:55;98979.81;;;14.58
73685;BMP280;61985;51.070;14.064;2023-04-10T16:10:21;98970.75;;;14.52
73685;BMP280;61985;51.070;14.064;2023-04-10T16:12:46;98972.66;;;14.42
73685;BMP280;61985;51.070;14.064;2023-04-10T16:15:12;98979.81;;;14.26
73685;BMP280;61985;51.070;14.064;2023-04-10T16:17:37;98980.50;;;14.18
73685;BMP280;61985;51.070;14.064;2023-04-10T16:20:04;98968.97;;;14.04
73685;BMP280;61985;51.070;14.064;2023-04-10T16:22:30;98967.81;;;13.93
73685;BMP280;61985;51.070;14.064;2023-04-10T16:24:56;98964.91;;;13.87
73685;BMP280;61985;51.070;14.064;2023-04-10T16:27:22;98948.78;;;13.83
73685;BMP280;61985;51.070;14.064;2023-04-10T16:29:47;98952.38;;;13.80